Time;durP1;ratioP1;P1;durP2;ratioP2;P2;SDS_P1;SDS_P2;PMS_P1;PMS_P2;Temp;Humidity;BMP_temperature;BMP_pressure;BME280_temperature;BME280_humidity;BME280_pressure;Samples;Min_cycle;Max_cycle;Signal;HPM_P1;HPM_P2
2022/09/04 00:02:10;;;;;;;3.75;2.30;;;20.00;99.90;;;;;;5035987;28;20100;-76
2022/09/04 00:04:57;;;;;;;6.93;2.47;;;19.90;99.90;;;;;;5042830;28;20969;-76
2022/09/04 00:07:22;;;;;;;3.75;1.90;;;19.90;99.90;;;;;;5035556;28;20065;-76
2022/09/04 00:10:19;;;;;;;5.68;1.70;;;20.00;99.90;;;;;;5035744;28;20079;-77
2022/09/04 00:13:01;;;;;;;5.88;2.30;;;20.00;99.90;;;;;;5036215;28;20537;-76
2022/09/04 00:15:35;;;;;;;5.25;1.80;;;20.10;99.90;;;;;;5035986;28;20085;-76
2022/09/04 00:18:14;;;;;;;4.13;2.03;;;20.10;99.90;;;;;;5035651;28;20104;-76
2022/09/04 00:20:39;;;;;;;5.43;2.20;;;20.00;99.90;;;;;;5035882;28;20022;-76
2022/09/04 00:23:21;;;;;;;4.20;1.88;;;20.00;99.90;;;;;;5035462;28;20026;-76
2022/09/04 00:26:02;;;;;;;3.70;1.83;;;20.10;99.90;;;;;;5035840;28;20025;-76
2022/09/04 00:28:38;;;;;;;4.22;1.95;;;20.00;99.90;;;;;;5035574;28;20699;-76
2022/09/04 00:31:11;;;;;;;3.67;2.30;;;20.00;99.90;;;;;;5035574;28;20485;-76
2022/09/04 00:33:45;;;;;;;4.28;1.77;;;20.00;99.90;;;;;;5035673;28;20026;-76
2022/09/04 00:36:12;;;;;;;;;;;19.90;99.90;;;;;;5035849;28;20036;-76
2022/09/04 00:38:47;;;;;;;3.60;1.98;;;20.00;99.90;;;;;;5035128;28;19905;-76
2022/09/04 00:41:31;;;;;;;4.30;1.98;;;19.80;99.90;;;;;;5035610;28;20030;-76
2022/09/04 00:44:18;;;;;;;3.95;2.25;;;19.90;99.90;;;;;;5035460;28;20100;-76
2022/09/04 00:46:44;;;;;;;3.47;2.05;;;20.00;99.90;;;;;;5035145;28;20487;-76
2022/09/04 00:49:39;;;;;;;4.22;1.70;;;20.00;99.90;;;;;;5034744;28;20069;-76
2022/09/04 00:52:23;;;;;;;2.80;1.60;;;19.90;99.90;;;;;;5035165;28;20029;-76
2022/09/04 00:55:04;;;;;;;5.13;2.28;;;19.90;99.90;;;;;;5035355;28;20021;-76
2022/09/04 00:57:57;;;;;;;3.45;2.13;;;19.80;99.90;;;;;;5035134;28;20080;-76
2022/09/04 01:00:26;;;;;;;4.78;2.05;;;19.60;99.90;;;;;;5035194;28;20022;-76
2022/09/04 01:02:55;;;;;;;4.68;1.60;;;19.40;99.90;;;;;;5033856;28;20398;-76
2022/09/04 01:05:45;;;;;;;4.10;2.15;;;19.40;99.90;;;;;;5035156;28;20063;-76
2022/09/04 01:08:33;;;;;;;18.60;2.40;;;19.40;99.90;;;;;;5035033;28;20044;-76
2022/09/04 01:11:21;;;;;;;3.33;1.90;;;19.40;99.90;;;;;;5034853;28;20041;-76
2022/09/04 01:14:00;;;;;;;4.65;2.38;;;19.50;99.90;;;;;;5035016;28;20112;-75
2022/09/04 01:16:42;;;;;;;6.97;2.28;;;19.20;99.90;;;;;;5034755;28;20029;-76
2022/09/04 01:19:27;;;;;;;3.78;2.20;;;19.10;99.90;;;;;;5034524;28;20032;-76
2022/09/04 01:21:53;;;;;;;3.50;2.10;;;19.00;99.90;;;;;;5034798;28;20026;-76
2022/09/04 01:25:01;;;;;;;5.13;2.20;;;19.00;99.90;;;;;;5034698;28;20494;-76
2022/09/04 01:27:41;;;;;;;3.45;1.98;;;19.10;99.90;;;;;;5040346;28;20442;-76
2022/09/04 01:30:15;;;;;;;4.55;2.20;;;19.10;99.90;;;;;;5034122;28;20372;-76
2022/09/04 01:33:06;;;;;;;5.28;2.25;;;19.20;99.90;;;;;;5034660;28;20113;-76
2022/09/04 01:35:51;;;;;;;3.58;1.90;;;19.20;99.90;;;;;;5034561;28;20108;-76
2022/09/04 01:38:34;;;;;;;3.30;2.00;;;19.10;99.90;;;;;;5034246;28;20084;-76
2022/09/04 01:41:16;;;;;;;2.90;1.50;;;19.00;99.90;;;;;;5034239;28;20025;-76
2022/09/04 01:43:42;;;;;;;3.20;1.73;;;19.10;99.90;;;;;;5034450;28;20032;-76
2022/09/04 01:46:19;;;;;;;3.75;1.58;;;19.20;99.90;;;;;;5034461;28;20079;-76
2022/09/04 01:49:07;;;;;;;5.00;1.75;;;19.10;99.90;;;;;;5033934;28;20395;-76
2022/09/04 01:51:55;;;;;;;4.05;2.28;;;19.20;99.90;;;;;;5034008;28;20047;-76
2022/09/04 01:54:23;;;;;;;4.82;1.98;;;19.10;99.90;;;;;;5033863;28;20030;-76
2022/09/04 01:57:05;;;;;;;4.03;1.50;;;19.20;99.90;;;;;;5034151;28;20459;-76
2022/09/04 01:59:34;;;;;;;3.25;1.60;;;19.20;99.90;;;;;;5033986;28;20112;-76
2022/09/04 02:02:32;;;;;;;4.55;2.05;;;19.10;99.90;;;;;;5034055;28;20040;-77
2022/09/04 02:05:06;;;;;;;4.35;1.73;;;19.10;99.90;;;;;;5037426;28;20424;-76
2022/09/04 02:07:45;;;;;;;2.20;1.05;;;19.10;99.90;;;;;;5034170;28;20041;-76
2022/09/04 02:10:23;;;;;;;4.55;1.30;;;19.20;99.90;;;;;;5033361;28;20053;-76
2022/09/04 02:12:51;;;;;;;3.03;1.10;;;19.00;99.90;;;;;;5033545;28;20029;-76
2022/09/04 02:15:30;;;;;;;2.63;1.33;;;19.10;99.90;;;;;;5033356;28;20497;-76
2022/09/04 02:18:01;;;;;;;2.75;1.30;;;19.20;99.90;;;;;;5033713;28;20022;-76
2022/09/04 02:20:29;;;;;;;1.90;1.02;;;19.10;99.90;;;;;;5033222;28;20399;-76
2022/09/04 02:22:58;;;;;;;3.35;1.38;;;19.00;99.90;;;;;;5033396;28;20052;-76
2022/09/04 02:25:45;;;;;;;2.53;0.88;;;19.20;99.90;;;;;;5033515;28;20037;-76
2022/09/04 02:28:11;;;;;;;2.42;1.30;;;19.20;99.90;;;;;;5033293;28;20026;-76
2022/09/04 02:30:49;;;;;;;2.63;0.85;;;19.20;99.90;;;;;;5033317;28;20391;-76
2022/09/04 02:33:39;;;;;;;3.92;1.00;;;19.10;99.90;;;;;;5033000;28;20025;-76
2022/09/04 02:36:08;;;;;;;1.95;1.20;;;19.20;99.90;;;;;;5033191;28;20520;-76
2022/09/04 02:38:43;;;;;;;4.30;1.40;;;19.20;99.90;;;;;;5032921;28;20100;-76
2022/09/04 02:41:14;;;;;;;5.20;1.08;;;19.10;99.90;;;;;;5033291;28;20379;-76
2022/09/04 02:43:39;;;;;;;3.97;1.30;;;19.10;99.90;;;;;;5033006;28;20033;-76
2022/09/04 02:46:28;;;;;;;2.85;1.08;;;19.00;99.90;;;;;;5033274;28;20055;-76
2022/09/04 02:49:12;;;;;;;2.95;1.40;;;19.10;99.90;;;;;;5033198;28;20025;-75
2022/09/04 02:51:44;;;;;;;;;;;19.00;99.90;;;;;;5033736;28;20029;-75
2022/09/04 02:54:31;;;;;;;5.22;1.08;;;19.00;99.90;;;;;;5032938;28;19937;-76
2022/09/04 02:57:08;;;;;;;3.58;1.10;;;19.00;99.90;;;;;;5032654;28;20029;-76
2022/09/04 02:59:55;;;;;;;2.92;1.20;;;19.00;99.90;;;;;;5032990;28;20029;-76
2022/09/04 03:02:39;;;;;;;2.13;1.10;;;18.90;99.90;;;;;;5032360;28;20203;-74
2022/09/04 03:05:19;;;;;;;1.77;1.02;;;19.00;99.90;;;;;;5045078;28;20195;-74
2022/09/04 03:07:59;;;;;;;1.88;1.10;;;19.00;99.90;;;;;;5046394;28;20025;-74
2022/09/04 03:10:33;;;;;;;4.72;1.40;;;19.00;99.90;;;;;;5046656;28;20056;-75
2022/09/04 03:13:37;;;;;;;3.17;1.10;;;18.90;99.90;;;;;;5045252;28;20380;-74
2022/09/04 03:16:14;;;;;;;2.67;1.23;;;19.00;99.90;;;;;;5046474;28;20530;-74
2022/09/04 03:19:09;;;;;;;2.50;1.35;;;19.00;99.90;;;;;;5027818;28;20179;-74
2022/09/04 03:21:39;;;;;;;;;;;19.00;99.90;;;;;;5024683;28;20033;-74
2022/09/04 03:24:29;;;;;;;3.72;1.00;;;19.10;99.90;;;;;;5026989;28;19927;-74
2022/09/04 03:27:07;;;;;;;2.60;1.30;;;19.10;99.90;;;;;;5027097;28;20033;-74
2022/09/04 03:29:52;;;;;;;2.95;1.00;;;19.00;99.90;;;;;;5026812;28;20333;-74
2022/09/04 03:32:28;;;;;;;2.05;1.00;;;19.00;99.90;;;;;;5030138;28;20057;-74
2022/09/04 03:35:16;;;;;;;3.03;1.10;;;19.00;99.90;;;;;;5030850;28;20025;-74
2022/09/04 03:38:20;;;;;;;3.08;1.58;;;18.90;99.90;;;;;;5032411;28;20037;-74
2022/09/04 03:41:17;;;;;;;4.35;1.20;;;18.90;99.90;;;;;;5030753;28;20622;-74
2022/09/04 03:43:42;;;;;;;2.40;1.10;;;19.00;99.90;;;;;;5030575;28;20030;-74
2022/09/04 03:46:17;;;;;;;2.50;1.10;;;18.90;99.90;;;;;;5030633;28;20044;-74
2022/09/04 03:49:25;;;;;;;2.72;1.10;;;18.70;99.90;;;;;;5030826;28;20337;-74
2022/09/04 03:52:31;;;;;;;2.47;1.08;;;18.80;99.90;;;;;;5038844;28;20064;-74
2022/09/04 03:55:06;;;;;;;2.70;1.15;;;18.90;99.90;;;;;;5030738;28;20116;-74
2022/09/04 03:57:48;;;;;;;2.05;0.93;;;18.70;99.90;;;;;;5029701;28;20030;-74
2022/09/04 04:00:20;;;;;;;2.63;1.38;;;18.80;99.90;;;;;;5027657;28;20026;-74
2022/09/04 04:03:16;;;;;;;1.70;0.98;;;18.70;99.90;;;;;;5027867;28;20119;-74
2022/09/04 04:06:00;;;;;;;1.88;0.98;;;18.80;99.90;;;;;;5027684;28;20037;-74
2022/09/04 04:08:29;;;;;;;6.30;1.10;;;18.60;99.90;;;;;;5027363;28;20060;-74
2022/09/04 04:11:07;;;;;;;2.97;1.48;;;18.60;99.90;;;;;;5026959;28;20049;-74
2022/09/04 04:13:51;;;;;;;3.20;1.00;;;18.40;99.90;;;;;;5027638;28;20080;-74
2022/09/04 04:16:39;;;;;;;;;;;18.40;99.90;;;;;;5027687;28;20129;-74
2022/09/04 04:19:32;;;;;;;3.00;1.10;;;18.30;99.90;;;;;;5027822;28;20425;-74
2022/09/04 04:22:31;;;;;;;1.77;0.85;;;18.50;99.90;;;;;;5027261;28;20033;-74
2022/09/04 04:25:00;;;;;;;1.88;0.77;;;18.40;99.90;;;;;;5027120;28;20104;-74
2022/09/04 04:27:47;;;;;;;2.35;1.00;;;18.30;99.90;;;;;;5027264;28;20554;-75
2022/09/04 04:30:17;;;;;;;3.10;1.13;;;18.30;99.90;;;;;;5027365;28;20037;-74
2022/09/04 04:32:57;;;;;;;3.10;1.15;;;18.40;99.90;;;;;;5027448;28;20059;-74
2022/09/04 04:35:33;;;;;;;1.83;1.00;;;18.30;99.90;;;;;;5027938;28;20164;-74
2022/09/04 04:38:23;;;;;;;2.00;0.90;;;18.20;99.90;;;;;;5026945;28;20032;-74
2022/09/04 04:41:03;;;;;;;2.28;0.98;;;18.30;99.90;;;;;;5026747;28;20014;-74
2022/09/04 04:43:32;;;;;;;1.90;0.85;;;18.10;99.90;;;;;;5026662;28;20033;-74
2022/09/04 04:46:26;;;;;;;2.53;1.10;;;17.80;99.90;;;;;;5027040;28;20025;-74
2022/09/04 04:49:06;;;;;;;2.22;1.20;;;17.80;99.90;;;;;;5026740;28;20124;-74
2022/09/04 04:51:57;;;;;;;2.05;0.90;;;17.90;99.90;;;;;;5027155;28;20499;-74
2022/09/04 04:54:39;;;;;;;1.77;0.80;;;17.70;99.90;;;;;;5026485;28;20115;-74
2022/09/04 04:57:09;;;;;;;4.28;1.48;;;17.70;99.90;;;;;;5026304;28;20104;-74
2022/09/04 04:59:54;;;;;;;2.08;1.10;;;17.60;99.90;;;;;;5026919;28;20029;-74
2022/09/04 05:02:36;;;;;;;3.30;1.25;;;17.60;99.90;;;;;;5026847;28;20097;-74
2022/09/04 05:05:40;;;;;;;2.20;1.10;;;17.60;99.90;;;;;;5026360;28;20029;-75
2022/09/04 05:08:21;;;;;;;2.45;1.00;;;17.30;99.90;;;;;;5026660;28;20404;-75
2022/09/04 05:10:58;;;;;;;1.80;0.80;;;17.20;99.90;;;;;;5026426;28;20192;-74
2022/09/04 05:14:02;;;;;;;2.50;1.40;;;17.30;99.90;;;;;;5025023;28;20029;-75
2022/09/04 05:16:31;;;;;;;2.47;1.10;;;17.30;99.90;;;;;;5034952;28;20048;-74
2022/09/04 05:19:13;;;;;;;2.47;1.13;;;17.50;99.90;;;;;;5026151;28;20026;-74
2022/09/04 05:22:06;;;;;;;2.13;1.30;;;17.10;99.90;;;;;;5026230;28;20040;-74
2022/09/04 05:24:51;;;;;;;4.70;1.17;;;17.00;99.90;;;;;;5026286;28;20033;-74
2022/09/04 05:27:38;;;;;;;2.78;1.48;;;16.90;99.90;;;;;;5026467;28;20159;-74
2022/09/04 05:30:20;;;;;;;2.75;1.30;;;17.00;99.90;;;;;;5025777;28;20029;-74
2022/09/04 05:33:25;;;;;;;2.88;1.40;;;17.00;99.90;;;;;;5026460;28;20029;-74
2022/09/04 05:36:17;;;;;;;2.55;1.30;;;17.00;99.90;;;;;;5026066;28;20068;-75
2022/09/04 05:38:54;;;;;;;1.70;0.93;;;17.10;99.90;;;;;;5027893;28;20499;-74
2022/09/04 05:41:52;;;;;;;2.80;1.50;;;17.20;99.90;;;;;;5025715;28;20482;-74
2022/09/04 05:44:32;;;;;;;4.30;1.80;;;17.00;99.90;;;;;;5027156;28;20492;-74
2022/09/04 05:47:25;;;;;;;3.22;1.35;;;17.10;99.90;;;;;;5028042;28;20561;-74
2022/09/04 05:50:18;;;;;;;3.95;1.73;;;17.20;99.90;;;;;;5028515;28;20518;-74
2022/09/04 05:53:02;;;;;;;2.60;1.10;;;17.30;99.90;;;;;;5028312;28;20021;-74
2022/09/04 05:55:30;;;;;;;2.55;1.50;;;17.20;99.90;;;;;;5028099;28;20025;-74
2022/09/04 05:58:09;;;;;;;2.05;1.25;;;17.20;99.90;;;;;;5028579;28;20415;-74
2022/09/04 06:01:05;;;;;;;3.47;1.33;;;17.20;99.90;;;;;;5028788;28;20164;-74
2022/09/04 06:04:08;;;;;;;4.20;1.48;;;17.20;99.90;;;;;;5027235;28;20026;-74
2022/09/04 06:07:19;;;;;;;2.30;1.23;;;17.30;99.90;;;;;;5027355;28;20068;-74
2022/09/04 06:10:22;;;;;;;2.70;1.40;;;17.50;99.90;;;;;;5030720;28;20077;-74
2022/09/04 06:13:16;;;;;;;2.53;1.38;;;17.70;99.90;;;;;;5025149;28;20276;-74
2022/09/04 06:16:07;;;;;;;2.92;1.30;;;17.90;99.90;;;;;;5028620;28;20314;-74
2022/09/04 06:18:39;;;;;;;4.97;1.48;;;18.00;99.90;;;;;;5028345;28;20108;-74
2022/09/04 06:21:29;;;;;;;2.70;1.15;;;18.20;99.90;;;;;;5028523;28;20357;-74
2022/09/04 06:24:23;;;;;;;4.75;1.50;;;18.20;99.90;;;;;;5028107;28;20037;-74
2022/09/04 06:27:14;;;;;;;2.55;1.30;;;18.40;99.90;;;;;;5028031;28;20060;-74
2022/09/04 06:29:45;;;;;;;2.97;1.20;;;18.30;99.90;;;;;;5028117;28;20037;-74
2022/09/04 06:32:23;;;;;;;5.32;1.58;;;18.20;99.90;;;;;;5028340;28;20354;-74
2022/09/04 06:34:58;;;;;;;2.88;1.23;;;18.30;99.90;;;;;;5028130;28;20032;-74
2022/09/04 06:38:01;;;;;;;4.78;1.35;;;18.20;99.90;;;;;;5028221;28;20029;-74
2022/09/04 06:40:41;;;;;;;2.22;1.30;;;18.40;99.90;;;;;;5028405;28;20029;-74
2022/09/04 06:43:46;;;;;;;2.75;1.60;;;18.40;99.90;;;;;;5028103;28;20028;-74
2022/09/04 06:46:15;;;;;;;;;;;18.40;99.90;;;;;;5028150;28;20025;-74
2022/09/04 06:48:50;;;;;;;4.03;1.30;;;18.40;99.90;;;;;;5028722;28;20370;-74
2022/09/04 06:51:35;;;;;;;2.28;1.27;;;19.20;99.90;;;;;;5028493;28;20044;-74
2022/09/04 06:54:30;;;;;;;2.30;1.13;;;19.70;99.90;;;;;;5027271;28;20812;-74
2022/09/04 06:57:19;;;;;;;4.18;1.33;;;19.90;99.90;;;;;;5025000;28;20042;-74
2022/09/04 06:59:59;;;;;;;3.20;1.52;;;23.30;96.90;;;;;;5026347;28;20033;-75
2022/09/04 07:02:55;;;;;;;1.75;1.02;;;25.10;94.40;;;;;;5024558;28;20037;-75
2022/09/04 07:05:27;;;;;;;2.17;1.00;;;25.50;93.60;;;;;;5024781;28;20025;-75
2022/09/04 07:08:11;;;;;;;2.83;1.10;;;24.90;93.20;;;;;;5024748;28;20198;-75
2022/09/04 07:10:49;;;;;;;6.07;1.30;;;25.00;92.60;;;;;;5024202;28;20049;-75
2022/09/04 07:13:23;;;;;;;3.35;1.10;;;25.30;93.00;;;;;;5024474;28;20508;-75
2022/09/04 07:15:58;;;;;;;2.85;1.00;;;25.40;92.50;;;;;;5024302;28;20025;-75
2022/09/04 07:18:53;;;;;;;3.58;1.23;;;24.90;92.20;;;;;;5022845;28;20427;-73
2022/09/04 07:21:38;;;;;;;;;;;24.50;92.90;;;;;;5024627;28;20530;-73
2022/09/04 07:24:28;;;;;;;2.35;1.13;;;23.40;93.90;;;;;;5024664;28;20423;-75
2022/09/04 07:27:14;;;;;;;2.55;1.00;;;20.80;97.00;;;;;;5022968;28;20036;-74
2022/09/04 07:29:53;;;;;;;3.22;1.15;;;20.00;99.40;;;;;;5024281;28;20299;-75
2022/09/04 07:32:32;;;;;;;1.42;0.90;;;19.60;99.90;;;;;;5024058;28;20171;-75
2022/09/04 07:35:18;;;;;;;2.58;1.00;;;19.40;99.90;;;;;;5024207;28;20056;-75
2022/09/04 07:38:07;;;;;;;4.07;1.10;;;19.40;99.90;;;;;;5023873;28;20116;-74
2022/09/04 07:40:49;;;;;;;2.53;1.35;;;19.20;99.90;;;;;;5024707;28;20021;-74
2022/09/04 07:43:33;;;;;;;2.67;1.13;;;19.40;99.90;;;;;;5024589;28;20025;-74
2022/09/04 07:46:28;;;;;;;8.15;1.90;;;19.50;99.90;;;;;;5024271;28;20495;-74
2022/09/04 07:49:01;;;;;;;1.83;0.90;;;19.60;99.90;;;;;;5024241;28;20121;-75
2022/09/04 07:51:36;;;;;;;2.72;1.27;;;19.70;99.90;;;;;;5024081;28;20522;-74
2022/09/04 07:54:15;;;;;;;5.15;1.52;;;19.60;99.90;;;;;;5023896;28;20399;-75
2022/09/04 07:57:09;;;;;;;1.83;1.15;;;19.50;99.90;;;;;;5024016;28;20517;-74
2022/09/04 07:59:54;;;;;;;2.60;1.35;;;19.60;99.90;;;;;;5024218;28;20029;-74
2022/09/04 08:02:20;;;;;;;3.67;1.40;;;19.60;99.90;;;;;;5024092;28;20041;-74
2022/09/04 08:05:04;;;;;;;2.40;1.25;;;19.50;99.90;;;;;;5023797;28;20025;-74
2022/09/04 08:07:33;;;;;;;2.30;1.30;;;19.50;99.90;;;;;;5023906;28;20496;-74
2022/09/04 08:10:32;;;;;;;3.08;1.20;;;19.60;99.90;;;;;;5023648;28;20049;-74
2022/09/04 08:13:01;;;;;;;2.10;1.02;;;19.70;99.90;;;;;;5023900;28;20030;-74
2022/09/04 08:15:44;;;;;;;3.03;1.40;;;19.80;99.90;;;;;;5023878;28;20083;-74
2022/09/04 08:18:28;;;;;;;2.88;1.42;;;19.80;99.90;;;;;;5026190;28;20029;-74
2022/09/04 08:21:19;;;;;;;5.07;1.70;;;19.70;99.90;;;;;;5027165;28;20036;-75
2022/09/04 08:24:07;;;;;;;2.65;1.42;;;19.70;99.90;;;;;;5026792;28;20033;-74
2022/09/04 08:26:51;;;;;;;2.80;1.40;;;20.00;99.90;;;;;;5027184;28;20080;-74
2022/09/04 08:29:44;;;;;;;3.50;1.30;;;20.10;99.90;;;;;;5026547;28;20037;-74
2022/09/04 08:32:28;;;;;;;2.33;1.20;;;20.10;99.90;;;;;;5026872;28;20071;-75
2022/09/04 08:35:13;;;;;;;3.80;1.58;;;20.20;99.90;;;;;;5027540;28;20032;-74
2022/09/04 08:38:03;;;;;;;2.22;1.30;;;20.20;99.90;;;;;;5027040;28;20051;-74
2022/09/04 08:40:41;;;;;;;2.47;1.27;;;20.40;99.90;;;;;;5027540;28;20025;-74
2022/09/04 08:43:45;;;;;;;4.82;1.30;;;20.30;99.90;;;;;;5027273;28;20040;-74
2022/09/04 08:46:32;;;;;;;3.72;1.30;;;20.40;99.90;;;;;;5026474;28;20337;-74
2022/09/04 08:49:09;;;;;;;3.67;1.27;;;20.70;99.90;;;;;;5027069;28;20032;-74
2022/09/04 08:52:12;;;;;;;2.15;1.10;;;20.70;99.90;;;;;;5027465;28;20157;-74
2022/09/04 08:55:00;;;;;;;1.80;1.10;;;22.40;98.70;;;;;;5029767;28;20447;-74
2022/09/04 08:57:29;;;;;;;3.03;1.23;;;25.40;94.60;;;;;;5029657;28;20036;-74
2022/09/04 09:00:08;;;;;;;2.35;1.33;;;26.40;93.20;;;;;;5029642;28;20030;-74
2022/09/04 09:02:55;;;;;;;2.33;1.20;;;26.90;93.70;;;;;;5029555;28;20021;-74
2022/09/04 09:05:42;;;;;;;5.88;1.35;;;27.20;93.20;;;;;;5026659;28;20040;-75
2022/09/04 09:08:35;;;;;;;2.22;1.40;;;27.30;92.20;;;;;;5026623;28;20029;-74
2022/09/04 09:11:10;;;;;;;2.90;1.50;;;27.90;92.30;;;;;;5029839;28;20041;-75
2022/09/04 09:13:44;;;;;;;2.63;1.42;;;27.70;91.90;;;;;;5029366;28;20032;-74
2022/09/04 09:16:18;;;;;;;4.15;1.30;;;27.90;92.20;;;;;;5029168;28;20025;-74
2022/09/04 09:19:13;;;;;;;2.72;1.27;;;28.00;92.50;;;;;;5029369;28;20072;-74
2022/09/04 09:22:02;;;;;;;2.30;1.23;;;27.70;92.10;;;;;;5032412;28;20045;-75
2022/09/04 09:24:33;;;;;;;2.35;1.10;;;28.20;91.50;;;;;;5028597;28;20037;-74
2022/09/04 09:27:02;;;;;;;2.10;1.10;;;27.60;91.90;;;;;;5029073;28;20069;-74
2022/09/04 09:29:55;;;;;;;2.55;1.35;;;27.10;92.10;;;;;;5029461;28;20030;-74
2022/09/04 09:32:53;;;;;;;2.35;1.20;;;27.00;92.20;;;;;;5029495;28;20104;-74
2022/09/04 09:35:54;;;;;;;2.53;1.35;;;26.20;92.20;;;;;;5035568;28;20051;-74
2022/09/04 09:38:53;;;;;;;4.43;1.48;;;25.00;92.60;;;;;;5026390;28;20021;-75
2022/09/04 09:41:27;;;;;;;3.25;1.52;;;25.00;93.20;;;;;;5029283;28;20519;-74
2022/09/04 09:44:04;;;;;;;2.58;1.30;;;24.20;93.80;;;;;;5029076;28;20084;-74
2022/09/04 09:47:00;;;;;;;2.53;1.27;;;23.60;94.90;;;;;;5029495;28;20025;-75
2022/09/04 09:49:44;;;;;;;2.10;1.20;;;23.80;94.40;;;;;;5028787;28;20069;-74
2022/09/04 09:52:47;;;;;;;2.78;1.27;;;23.60;95.20;;;;;;5029063;28;20029;-74
2022/09/04 09:55:30;;;;;;;2.58;1.55;;;23.50;95.10;;;;;;5026104;28;20112;-74
2022/09/04 09:58:21;;;;;;;2.13;1.30;;;23.30;94.80;;;;;;5025768;28;20121;-74
2022/09/04 10:01:19;;;;;;;2.40;1.20;;;23.30;95.40;;;;;;5027560;28;20120;-74
2022/09/04 10:04:17;;;;;;;2.22;1.40;;;23.20;95.10;;;;;;5031028;28;20037;-74
2022/09/04 10:07:21;;;;;;;2.47;1.35;;;23.30;95.40;;;;;;5027105;28;20057;-74
2022/09/04 10:10:01;;;;;;;2.67;1.30;;;23.40;94.60;;;;;;5028137;28;20056;-74
2022/09/04 10:12:57;;;;;;;2.67;1.40;;;23.40;95.10;;;;;;5028439;28;20027;-74
2022/09/04 10:16:02;;;;;;;2.40;1.20;;;23.70;94.80;;;;;;5028238;28;20056;-74
2022/09/04 10:18:39;;;;;;;4.25;1.25;;;23.60;94.70;;;;;;5028503;28;20033;-74
2022/09/04 10:21:11;;;;;;;2.72;1.30;;;23.80;95.20;;;;;;5028066;28;20097;-74
2022/09/04 10:24:09;;;;;;;3.88;1.52;;;24.10;95.40;;;;;;5028088;28;20056;-74
2022/09/04 10:26:52;;;;;;;2.10;1.20;;;24.30;94.60;;;;;;5028256;28;20026;-74
2022/09/04 10:29:43;;;;;;;2.58;1.50;;;24.00;94.80;;;;;;5027201;28;20082;-75
2022/09/04 10:32:14;;;;;;;3.22;1.40;;;24.20;96.30;;;;;;5024951;28;20505;-74
2022/09/04 10:35:08;;;;;;;2.42;1.30;;;24.40;95.20;;;;;;5024417;28;20025;-74
2022/09/04 10:37:58;;;;;;;2.28;1.23;;;24.20;95.10;;;;;;5025400;28;20514;-73
2022/09/04 10:41:01;;;;;;;2.33;1.10;;;24.10;94.30;;;;;;5025069;28;20021;-74
2022/09/04 10:44:03;;;;;;;2.38;1.33;;;24.20;94.70;;;;;;5024923;28;20105;-76
2022/09/04 10:46:50;;;;;;;4.80;1.67;;;24.20;94.60;;;;;;5024624;28;20029;-75
2022/09/04 10:49:32;;;;;;;3.60;1.75;;;24.60;96.00;;;;;;5024363;28;20446;-74
2022/09/04 10:52:20;;;;;;;2.67;1.30;;;25.00;94.20;;;;;;5024679;28;20029;-75
2022/09/04 10:55:01;;;;;;;3.10;1.70;;;25.40;93.70;;;;;;5024475;28;20025;-74
2022/09/04 10:57:53;;;;;;;3.97;1.45;;;25.50;93.60;;;;;;5023699;28;20032;-74
2022/09/04 11:00:21;;;;;;;2.45;1.20;;;25.40;94.70;;;;;;5025892;28;20091;-75
2022/09/04 11:03:39;;;;;;;5.82;1.50;;;25.20;93.70;;;;;;5024094;28;20113;-74
2022/09/04 11:06:24;;;;;;;2.20;1.38;;;25.00;93.80;;;;;;5041084;28;20188;-74
2022/09/04 11:09:05;;;;;;;4.30;1.90;;;25.40;94.40;;;;;;5024432;28;20483;-74
2022/09/04 11:11:30;;;;;;;2.35;1.20;;;25.50;94.20;;;;;;5024254;28;20487;-74
2022/09/04 11:14:08;;;;;;;2.38;1.33;;;25.60;94.40;;;;;;5024365;28;20036;-75
2022/09/04 11:16:48;;;;;;;2.25;1.20;;;25.40;93.90;;;;;;5024464;28;20179;-74
2022/09/04 11:19:32;;;;;;;2.60;1.35;;;25.60;94.60;;;;;;5024731;28;20033;-75
2022/09/04 11:22:19;;;;;;;2.50;1.40;;;25.40;93.20;;;;;;5024402;28;20037;-75
2022/09/04 11:24:58;;;;;;;2.17;1.17;;;25.20;93.30;;;;;;5024672;28;20036;-74
2022/09/04 11:27:44;;;;;;;5.13;1.73;;;25.20;93.40;;;;;;5024220;28;20073;-74
2022/09/04 11:30:41;;;;;;;3.38;1.67;;;25.60;94.10;;;;;;5024276;28;20032;-74
2022/09/04 11:33:22;;;;;;;3.75;1.55;;;25.60;93.40;;;;;;5031690;28;20188;-74
2022/09/04 11:35:57;;;;;;;2.97;1.60;;;25.60;93.50;;;;;;5024377;28;20029;-74
2022/09/04 11:38:43;;;;;;;2.30;1.27;;;26.20;93.30;;;;;;5023684;28;20029;-76
2022/09/04 11:41:27;;;;;;;2.65;1.42;;;26.20;93.60;;;;;;5022182;28;20380;-74
2022/09/04 11:44:21;;;;;;;2.78;1.30;;;26.00;92.50;;;;;;5023879;28;20442;-74
2022/09/04 11:47:26;;;;;;;2.65;1.55;;;25.90;92.50;;;;;;5029615;28;20599;-75
2022/09/04 11:49:57;;;;;;;4.22;1.90;;;26.20;93.60;;;;;;5024196;28;20040;-74
2022/09/04 11:52:37;;;;;;;3.70;1.70;;;26.10;92.20;;;;;;5026638;28;20573;-75
2022/09/04 11:55:21;;;;;;;5.50;1.63;;;26.30;91.90;;;;;;5030830;28;20105;-74
2022/09/04 11:57:49;;;;;;;4.47;1.60;;;26.60;91.90;;;;;;5029972;28;20497;-74
2022/09/04 12:00:17;;;;;;;4.15;1.65;;;26.50;91.40;;;;;;5030726;28;20022;-75
2022/09/04 12:03:13;;;;;;;2.55;1.58;;;26.20;92.40;;;;;;5031041;28;20100;-75
2022/09/04 12:06:09;;;;;;;4.82;1.70;;;26.70;93.00;;;;;;5030523;28;20025;-74
2022/09/04 12:08:38;;;;;;;3.22;1.42;;;27.10;92.90;;;;;;5030919;28;20265;-74
2022/09/04 12:11:59;;;;;;;2.50;1.70;;;26.50;91.30;;;;;;5030711;28;20125;-74
2022/09/04 12:14:36;;;;;;;4.65;1.50;;;26.30;92.70;;;;;;5047273;28;20548;-75
2022/09/04 12:17:39;;;;;;;3.10;1.50;;;26.60;92.30;;;;;;5030434;28;20034;-74
2022/09/04 12:20:13;;;;;;;4.93;1.58;;;26.90;92.30;;;;;;5030370;28;20280;-75
2022/09/04 12:23:04;;;;;;;2.17;1.38;;;27.10;91.90;;;;;;5030224;28;20103;-75
2022/09/04 12:25:41;;;;;;;3.25;1.67;;;26.90;91.90;;;;;;5030311;28;20029;-74
2022/09/04 12:28:17;;;;;;;1.98;1.10;;;27.10;92.80;;;;;;5030621;28;20452;-74
2022/09/04 12:31:06;;;;;;;2.95;1.38;;;27.00;91.90;;;;;;5030663;28;20037;-75
2022/09/04 12:34:00;;;;;;;2.75;1.42;;;27.00;91.50;;;;;;5030275;28;20292;-74
2022/09/04 12:36:50;;;;;;;2.00;1.27;;;27.20;91.40;;;;;;5030373;28;20500;-74
2022/09/04 12:39:42;;;;;;;4.22;1.33;;;27.20;91.50;;;;;;5030244;28;20029;-75
2022/09/04 12:42:27;;;;;;;3.38;1.00;;;27.20;92.50;;;;;;5030285;28;20018;-75
2022/09/04 12:45:29;;;;;;;4.55;1.60;;;27.50;92.30;;;;;;5030208;28;20391;-74
2022/09/04 12:48:02;;;;;;;2.40;1.40;;;27.50;92.80;;;;;;5029778;28;20044;-75
2022/09/04 12:50:48;;;;;;;3.05;1.65;;;27.70;92.50;;;;;;5028437;28;20397;-75
2022/09/04 12:53:26;;;;;;;4.38;1.77;;;27.40;91.40;;;;;;5029964;28;20061;-74
2022/09/04 12:56:01;;;;;;;4.57;1.13;;;27.30;92.10;;;;;;5029588;28;20064;-74
2022/09/04 12:58:30;;;;;;;2.72;1.27;;;27.40;92.10;;;;;;5029597;28;20021;-76
2022/09/04 13:01:01;;;;;;;2.70;1.63;;;27.40;91.10;;;;;;5029932;28;20014;-75
2022/09/04 13:03:40;;;;;;;2.38;1.20;;;27.40;93.10;;;;;;5029444;28;20396;-75
2022/09/04 13:06:36;;;;;;;3.78;1.48;;;27.80;91.90;;;;;;5029341;28;20052;-75
2022/09/04 13:09:07;;;;;;;2.38;1.38;;;27.70;91.50;;;;;;5029384;28;20092;-74
2022/09/04 13:12:16;;;;;;;3.45;1.80;;;27.70;91.30;;;;;;5029283;28;20039;-74
2022/09/04 13:14:59;;;;;;;2.20;1.35;;;28.00;92.80;;;;;;5029527;28;20045;-75
2022/09/04 13:17:52;;;;;;;3.50;1.48;;;27.70;90.70;;;;;;5029521;28;20495;-75
2022/09/04 13:20:42;;;;;;;4.13;1.40;;;27.80;91.20;;;;;;5029414;28;20248;-74
2022/09/04 13:23:49;;;;;;;3.72;1.38;;;28.20;91.00;;;;;;5029025;28;20097;-74
2022/09/04 13:26:37;;;;;;;2.83;1.55;;;28.40;90.60;;;;;;5029127;28;20026;-75
2022/09/04 13:29:28;;;;;;;3.95;1.23;;;28.40;89.20;;;;;;5028815;28;20102;-74
2022/09/04 13:32:20;;;;;;;2.60;1.27;;;28.70;90.90;;;;;;5034916;28;20037;-75
2022/09/04 13:35:00;;;;;;;2.28;1.20;;;28.60;88.70;;;;;;5030749;28;20065;-75
2022/09/04 13:37:43;;;;;;;4.05;1.23;;;28.40;88.30;;;;;;5028363;28;20033;-74
2022/09/04 13:40:21;;;;;;;2.25;1.20;;;28.50;88.40;;;;;;5028448;28;20120;-74
2022/09/04 13:42:53;;;;;;;2.45;1.35;;;28.60;88.80;;;;;;5028893;28;20025;-75
2022/09/04 13:45:29;;;;;;;8.30;1.80;;;28.80;89.00;;;;;;5028780;28;20471;-74
2022/09/04 13:48:20;;;;;;;2.90;1.30;;;29.00;89.00;;;;;;5028755;28;20021;-74
2022/09/04 13:51:01;;;;;;;4.38;1.20;;;29.00;88.10;;;;;;5029124;28;20514;-74
2022/09/04 13:53:34;;;;;;;4.28;1.60;;;29.00;89.20;;;;;;5028937;28;20075;-75
2022/09/04 13:56:05;;;;;;;2.10;1.15;;;29.00;88.60;;;;;;5028561;28;20060;-74
2022/09/04 13:58:38;;;;;;;2.15;1.30;;;29.10;89.80;;;;;;5028319;28;20021;-76
2022/09/04 14:01:10;;;;;;;5.43;1.42;;;29.20;90.20;;;;;;5028465;28;20030;-75
2022/09/04 14:03:39;;;;;;;5.80;1.83;;;29.10;89.30;;;;;;5028568;28;20025;-75
2022/09/04 14:06:09;;;;;;;2.15;1.23;;;28.70;88.80;;;;;;5028315;28;20121;-74
2022/09/04 14:08:38;;;;;;;2.35;1.27;;;28.70;89.20;;;;;;5028366;28;20306;-74
2022/09/04 14:11:29;;;;;;;4.18;1.60;;;28.70;88.80;;;;;;5027913;28;20036;-74
2022/09/04 14:14:18;;;;;;;3.60;1.75;;;28.80;89.40;;;;;;5028278;28;20029;-75